createdAt,value
2024-01-16T00:00:22.310Z,997.19
2024-01-16T00:01:24.298Z,997.09
2024-01-16T00:02:24.332Z,997.49
2024-01-16T00:03:25.476Z,997.49
2024-01-16T00:04:26.749Z,997.49
2024-01-16T00:05:27.462Z,997.49
2024-01-16T00:06:28.264Z,997.59
2024-01-16T00:07:29.454Z,997.39
2024-01-16T00:08:30.531Z,997.49
2024-01-16T00:09:31.382Z,997.39
2024-01-16T00:10:32.325Z,997.49
2024-01-16T00:11:38.529Z,997.70
2024-01-16T00:12:34.700Z,997.59
2024-01-16T00:13:35.432Z,997.70
2024-01-16T00:14:36.375Z,997.59
2024-01-16T00:15:37.677Z,997.49
2024-01-16T00:16:38.501Z,997.59
2024-01-16T00:17:39.691Z,997.80
2024-01-16T00:18:40.627Z,997.70
2024-01-16T00:19:41.433Z,997.59
2024-01-16T00:20:42.655Z,997.70
2024-01-16T00:21:43.654Z,997.70
2024-01-16T00:22:44.909Z,997.70
2024-01-16T00:23:45.536Z,997.70
2024-01-16T00:24:46.457Z,997.70
2024-01-16T00:25:47.452Z,997.70
2024-01-16T00:26:48.539Z,997.59
2024-01-16T00:27:49.655Z,997.80
2024-01-16T00:28:50.463Z,997.80
2024-01-16T00:29:51.546Z,997.70
2024-01-16T00:30:52.725Z,997.70
2024-01-16T00:31:54.428Z,997.70
2024-01-16T00:32:54.628Z,997.59
2024-01-16T00:33:55.595Z,997.70
2024-01-16T00:34:56.558Z,997.70
2024-01-16T00:35:57.572Z,997.70
2024-01-16T00:36:59.512Z,997.70
2024-01-16T00:37:59.662Z,997.80
2024-01-16T00:39:00.705Z,997.70
2024-01-16T00:40:01.669Z,997.80
2024-01-16T00:41:02.787Z,997.80
2024-01-16T00:42:03.721Z,997.70
2024-01-16T00:43:04.596Z,997.80
2024-01-16T00:44:05.624Z,997.80
2024-01-16T00:45:06.614Z,997.80
2024-01-16T00:46:07.608Z,997.90
2024-01-16T00:47:08.180Z,997.90
2024-01-16T00:48:09.084Z,997.80
2024-01-16T00:49:10.099Z,997.70
2024-01-16T00:50:11.910Z,997.70
2024-01-16T00:51:12.162Z,997.70
2024-01-16T00:52:13.147Z,997.90
2024-01-16T00:53:14.138Z,997.80
2024-01-16T00:54:15.109Z,997.80
2024-01-16T00:55:16.208Z,998.00
2024-01-16T00:56:17.166Z,997.80
2024-01-16T00:57:18.384Z,998.00
2024-01-16T00:58:19.325Z,998.00
2024-01-16T00:59:20.302Z,997.80
2024-01-16T01:00:21.254Z,997.90
2024-01-16T01:01:22.717Z,997.70
2024-01-16T01:02:23.323Z,997.90
2024-01-16T01:03:24.222Z,997.90
2024-01-16T01:04:25.201Z,998.10
2024-01-16T01:05:26.322Z,998.00
2024-01-16T01:06:27.338Z,998.10
2024-01-16T01:07:28.234Z,998.10
2024-01-16T01:08:29.548Z,997.90
2024-01-16T01:09:30.346Z,998.20
2024-01-16T01:10:31.278Z,998.10
2024-01-16T01:11:32.371Z,998.00
2024-01-16T01:12:33.301Z,998.31
2024-01-16T01:13:34.545Z,998.10
2024-01-16T01:14:35.504Z,998.10
2024-01-16T01:15:36.569Z,998.20
2024-01-16T01:16:37.738Z,998.20
2024-01-16T01:17:38.419Z,998.20
2024-01-16T01:18:39.392Z,998.41
2024-01-16T01:19:40.311Z,998.20
2024-01-16T01:20:41.391Z,998.10
2024-01-16T01:21:42.344Z,998.31
2024-01-16T01:24:51.622Z,998.41
2024-01-16T01:25:51.015Z,998.31
2024-01-16T01:26:47.521Z,998.31
2024-01-16T01:27:49.728Z,998.31
2024-01-16T01:28:54.476Z,998.20
2024-01-16T01:29:50.594Z,998.31
2024-01-16T01:30:51.642Z,998.10
2024-01-16T01:31:52.497Z,998.20
2024-01-16T01:32:53.576Z,998.20
2024-01-16T01:33:54.504Z,998.20
2024-01-16T01:34:56.711Z,998.20
2024-01-16T01:35:56.716Z,998.31
2024-01-16T01:36:57.519Z,998.31
2024-01-16T01:37:58.545Z,998.20
2024-01-16T01:38:59.511Z,998.20
2024-01-16T01:40:00.701Z,998.41
2024-01-16T01:41:02.229Z,998.51
2024-01-16T01:42:02.651Z,998.41
2024-01-16T01:43:03.750Z,998.41
2024-01-16T01:44:04.950Z,998.61
2024-01-16T01:45:05.668Z,998.51
2024-01-16T01:46:06.469Z,998.51
2024-01-16T01:47:06.950Z,998.41
2024-01-16T01:48:08.279Z,998.31
2024-01-16T01:49:09.349Z,998.61
2024-01-16T01:50:10.179Z,998.61
2024-01-16T01:51:11.110Z,998.41
2024-01-16T01:52:11.967Z,998.51
2024-01-16T01:53:13.161Z,998.41
2024-01-16T01:54:14.157Z,998.61
2024-01-16T01:55:15.361Z,998.41
2024-01-16T01:56:16.163Z,998.41
2024-01-16T01:57:17.078Z,998.51
2024-01-16T01:58:18.072Z,998.31
2024-01-16T01:59:19.028Z,998.61
2024-01-16T02:00:20.268Z,998.51
2024-01-16T02:01:21.279Z,998.51
2024-01-16T02:02:22.070Z,998.41
2024-01-16T02:03:23.873Z,998.41
2024-01-16T02:04:24.240Z,998.51
2024-01-16T02:05:25.358Z,998.41
2024-01-16T02:06:26.254Z,998.51
2024-01-16T02:07:28.435Z,998.51
2024-01-16T02:08:28.132Z,998.51
2024-01-16T02:09:29.291Z,998.71
2024-01-16T02:10:30.374Z,998.51
2024-01-16T02:11:31.863Z,998.71
2024-01-16T02:12:32.292Z,998.61
2024-01-16T02:13:33.324Z,998.51
2024-01-16T02:14:34.618Z,998.71
2024-01-16T02:15:35.549Z,998.71
2024-01-16T02:16:37.904Z,998.81
2024-01-16T02:17:38.565Z,998.61
2024-01-16T02:18:38.454Z,998.81
2024-01-16T02:19:39.413Z,998.71
2024-01-16T02:20:40.533Z,998.71
2024-01-16T02:21:41.423Z,998.71
2024-01-16T02:22:42.402Z,998.71
2024-01-16T02:23:44.070Z,998.71
2024-01-16T02:24:44.416Z,998.92
2024-01-16T02:25:45.482Z,998.71
2024-01-16T02:26:46.905Z,998.51
2024-01-16T02:27:47.280Z,998.61
2024-01-16T02:28:48.494Z,998.71
2024-01-16T02:29:49.482Z,998.81
2024-01-16T02:30:50.529Z,998.71
2024-01-16T02:31:51.795Z,998.81
2024-01-16T02:32:52.529Z,998.71
2024-01-16T02:33:53.591Z,998.92
2024-01-16T02:34:54.429Z,998.81
2024-01-16T02:35:55.580Z,998.92
2024-01-16T02:36:56.702Z,998.92
2024-01-16T02:37:57.534Z,998.71
2024-01-16T02:38:58.457Z,998.71
2024-01-16T02:40:00.284Z,998.92
2024-01-16T02:41:00.555Z,998.98
2024-01-16T02:42:01.632Z,998.71
2024-01-16T02:43:02.501Z,998.81
2024-01-16T02:44:03.795Z,998.98
2024-01-16T02:45:04.661Z,998.92
2024-01-16T02:46:05.617Z,999.08
2024-01-16T02:47:05.957Z,998.81
2024-01-16T02:48:07.021Z,998.98
2024-01-16T02:49:08.196Z,998.98
2024-01-16T02:50:09.176Z,998.98
2024-01-16T02:51:09.943Z,998.98
2024-01-16T02:52:10.953Z,998.92
2024-01-16T02:53:12.219Z,999.08
2024-01-16T02:54:13.161Z,998.98
2024-01-16T02:55:14.087Z,998.98
2024-01-16T02:56:16.305Z,999.08
2024-01-16T02:57:16.044Z,998.92
2024-01-16T02:58:17.113Z,998.92
2024-01-16T02:59:18.122Z,998.81
2024-01-16T03:00:19.279Z,999.08
2024-01-16T03:01:20.116Z,998.92
2024-01-16T03:02:21.608Z,998.98
2024-01-16T03:03:22.325Z,999.08
2024-01-16T03:04:23.142Z,999.08
2024-01-16T03:05:24.466Z,999.19
2024-01-16T03:06:26.549Z,998.98
2024-01-16T03:07:26.214Z,998.98
2024-01-16T03:08:27.366Z,998.98
2024-01-16T03:09:28.415Z,999.08
2024-01-16T03:10:29.302Z,999.19
2024-01-16T03:11:32.600Z,998.98
2024-01-16T03:12:31.222Z,999.29
2024-01-16T03:13:32.331Z,999.29
2024-01-16T03:14:33.240Z,999.08
2024-01-16T03:15:34.469Z,999.08
2024-01-16T03:16:35.450Z,999.39
2024-01-16T03:17:36.579Z,998.92
2024-01-16T03:18:37.424Z,998.98
2024-01-16T03:19:38.526Z,999.08
2024-01-16T03:20:39.493Z,999.08
2024-01-16T03:21:40.776Z,999.19
2024-01-16T03:22:41.266Z,999.08
2024-01-16T03:23:42.522Z,999.19
2024-01-16T03:24:43.426Z,998.98
2024-01-16T03:25:44.708Z,999.08
2024-01-16T03:26:45.450Z,999.08
2024-01-16T03:27:46.384Z,999.29
2024-01-16T03:28:47.347Z,999.39
2024-01-16T03:29:48.572Z,999.39
2024-01-16T03:30:49.830Z,999.49
2024-01-16T03:31:50.495Z,999.19
2024-01-16T03:32:56.540Z,999.19
2024-01-16T03:33:52.576Z,999.19
2024-01-16T03:34:53.600Z,999.19
2024-01-16T03:35:54.568Z,999.29
2024-01-16T03:36:55.450Z,999.08
2024-01-16T03:37:56.561Z,999.08
2024-01-16T03:38:58.032Z,999.29
2024-01-16T03:39:58.462Z,999.08
2024-01-16T03:40:59.518Z,999.29
2024-01-16T03:42:00.520Z,999.19
2024-01-16T03:43:01.502Z,999.08
2024-01-16T03:44:02.655Z,999.19
2024-01-16T03:45:03.760Z,999.19
2024-01-16T03:46:04.700Z,999.19
2024-01-16T03:47:05.170Z,999.29
2024-01-16T03:48:06.454Z,999.19
2024-01-16T03:49:07.099Z,999.19
2024-01-16T03:50:08.288Z,999.19
2024-01-16T03:51:09.061Z,999.29
2024-01-16T03:52:09.874Z,999.19
2024-01-16T03:53:11.136Z,999.19
2024-01-16T03:54:12.177Z,999.39
2024-01-16T03:55:12.948Z,999.29
2024-01-16T03:56:14.365Z,999.29
2024-01-16T03:57:20.062Z,999.19
2024-01-16T03:58:16.245Z,999.19
2024-01-16T03:59:17.104Z,999.29
2024-01-16T04:00:18.108Z,999.08
2024-01-16T04:01:19.156Z,999.39
2024-01-16T04:02:20.128Z,999.29
2024-01-16T04:03:21.032Z,999.29
2024-01-16T04:04:22.145Z,999.29
2024-01-16T04:05:23.199Z,999.29
2024-01-16T04:06:24.296Z,999.19
2024-01-16T04:07:25.298Z,999.29
2024-01-16T04:08:26.157Z,999.29
2024-01-16T04:09:27.256Z,999.29
2024-01-16T04:10:28.243Z,999.19
2024-01-16T04:11:29.114Z,999.39
2024-01-16T04:12:30.110Z,999.08
2024-01-16T04:13:31.724Z,999.19
2024-01-16T04:14:32.412Z,999.08
2024-01-16T04:15:33.392Z,999.29
2024-01-16T04:16:37.437Z,999.08
2024-01-16T04:17:35.410Z,999.19
2024-01-16T04:18:36.638Z,999.08
2024-01-16T04:19:37.446Z,999.08
2024-01-16T04:20:38.264Z,999.19
2024-01-16T04:21:39.303Z,999.29
2024-01-16T04:22:40.358Z,999.08
2024-01-16T04:23:41.525Z,999.08
2024-01-16T04:24:42.735Z,999.19
2024-01-16T04:25:43.407Z,999.08
2024-01-16T04:26:44.482Z,999.19
2024-01-16T04:27:45.256Z,999.29
2024-01-16T04:28:46.352Z,999.29
2024-01-16T04:29:48.073Z,999.08
2024-01-16T04:30:48.643Z,999.08
2024-01-16T04:31:49.486Z,999.19
2024-01-16T04:32:50.827Z,999.19
2024-01-16T04:33:51.724Z,999.39
2024-01-16T04:34:52.381Z,999.29
2024-01-16T04:35:53.459Z,999.29
2024-01-16T04:36:54.467Z,999.19
2024-01-16T04:37:55.440Z,999.19
2024-01-16T04:39:00.013Z,999.19
2024-01-16T04:39:57.426Z,999.29
2024-01-16T04:40:59.108Z,999.29
2024-01-16T04:41:59.880Z,999.08
2024-01-16T04:43:00.465Z,999.29
2024-01-16T04:44:01.418Z,999.29
2024-01-16T04:45:02.803Z,999.39
2024-01-16T04:46:04.192Z,999.19
2024-01-16T04:47:04.069Z,999.39
2024-01-16T04:48:05.197Z,999.29
2024-01-16T04:49:05.976Z,999.39
2024-01-16T04:50:07.123Z,999.39
2024-01-16T04:51:08.002Z,999.39
2024-01-16T04:52:08.982Z,999.39
2024-01-16T04:53:10.003Z,999.49
2024-01-16T04:54:16.081Z,999.49
2024-01-16T04:55:12.540Z,999.39
2024-01-16T04:56:13.303Z,999.39
2024-01-16T04:57:13.984Z,999.29
2024-01-16T04:58:15.308Z,999.59
2024-01-16T04:59:17.074Z,999.29
2024-01-16T05:00:17.128Z,999.29
2024-01-16T05:01:18.048Z,999.49
2024-01-16T05:02:19.153Z,999.29
2024-01-16T05:03:20.344Z,999.39
2024-01-16T05:04:21.234Z,999.29
2024-01-16T05:05:22.146Z,999.49
2024-01-16T05:06:23.196Z,999.49
2024-01-16T05:07:24.210Z,999.49
2024-01-16T05:08:25.306Z,999.59
2024-01-16T05:09:26.373Z,999.29
2024-01-16T05:10:27.093Z,999.49
2024-01-16T05:11:28.032Z,999.49
2024-01-16T05:12:29.229Z,999.39
2024-01-16T05:13:30.089Z,999.49
2024-01-16T05:14:31.134Z,999.39
2024-01-16T05:15:32.255Z,999.39
2024-01-16T05:16:33.278Z,999.49
2024-01-16T05:17:34.788Z,999.49
2024-01-16T05:18:35.634Z,999.39
2024-01-16T05:19:36.196Z,999.39
2024-01-16T05:20:37.443Z,999.39
2024-01-16T05:21:38.381Z,999.49
2024-01-16T05:22:39.420Z,999.49
2024-01-16T05:23:40.407Z,999.59
2024-01-16T05:24:41.393Z,999.59
2024-01-16T05:25:42.559Z,999.29
2024-01-16T05:26:43.466Z,999.39
2024-01-16T05:27:44.390Z,999.29
2024-01-16T05:28:46.174Z,999.29
2024-01-16T05:29:46.322Z,999.39
2024-01-16T05:30:47.584Z,999.39
2024-01-16T05:31:48.502Z,999.39
2024-01-16T05:32:49.468Z,999.39
2024-01-16T05:33:50.566Z,999.39
2024-01-16T05:34:51.358Z,999.49
2024-01-16T05:35:52.555Z,999.49
2024-01-16T05:36:53.446Z,999.49
2024-01-16T05:37:54.511Z,999.29
2024-01-16T05:38:55.409Z,999.59
2024-01-16T05:39:56.424Z,999.49
2024-01-16T05:40:57.440Z,999.29
2024-01-16T05:41:58.466Z,999.39
2024-01-16T05:42:59.395Z,999.49
2024-01-16T05:44:00.528Z,999.39
2024-01-16T05:45:01.685Z,999.59
2024-01-16T05:46:02.848Z,999.39
2024-01-16T05:47:03.096Z,999.39
2024-01-16T05:48:04.223Z,999.39
2024-01-16T05:49:05.537Z,999.29
2024-01-16T05:50:05.921Z,999.49
2024-01-16T05:51:07.172Z,999.59
2024-01-16T05:52:08.986Z,999.49
2024-01-16T05:53:09.053Z,999.59
2024-01-16T05:54:10.109Z,999.49
2024-01-16T05:55:11.181Z,999.69
2024-01-16T05:56:13.497Z,999.59
2024-01-16T05:57:13.207Z,999.59
2024-01-16T05:58:15.257Z,999.49
2024-01-16T05:59:15.113Z,999.59
2024-01-16T06:00:16.282Z,999.59
2024-01-16T06:01:17.083Z,999.49
2024-01-16T06:02:18.468Z,999.69
2024-01-16T06:03:19.120Z,999.80
2024-01-16T06:04:20.090Z,999.59
2024-01-16T06:05:21.223Z,999.49
2024-01-16T06:06:22.210Z,999.59
2024-01-16T06:07:23.482Z,999.90
2024-01-16T06:08:24.195Z,999.69
2024-01-16T06:09:25.213Z,999.69
2024-01-16T06:10:26.304Z,999.80
2024-01-16T06:11:27.284Z,999.69
2024-01-16T06:12:27.997Z,999.59
2024-01-16T06:13:29.048Z,999.59
2024-01-16T06:14:30.715Z,999.90
2024-01-16T06:15:31.139Z,999.69
2024-01-16T06:16:32.321Z,999.80
2024-01-16T06:17:33.354Z,999.80
2024-01-16T06:18:34.522Z,999.80
2024-01-16T06:19:35.233Z,999.80
2024-01-16T06:20:36.320Z,999.80
2024-01-16T06:21:37.332Z,999.80
2024-01-16T06:22:38.266Z,999.80
2024-01-16T06:23:40.150Z,999.90
2024-01-16T06:24:40.187Z,999.90
2024-01-16T06:25:41.414Z,999.90
2024-01-16T06:26:42.289Z,1000.00
2024-01-16T06:27:43.945Z,999.90
2024-01-16T06:28:44.184Z,1000.00
2024-01-16T06:29:45.541Z,1000.10
2024-01-16T06:30:46.503Z,1000.10
2024-01-16T06:31:47.494Z,1000.00
2024-01-16T06:32:48.618Z,1000.10
2024-01-16T06:33:49.524Z,1000.00
2024-01-16T06:34:50.920Z,1000.10
2024-01-16T06:35:54.148Z,1000.00
2024-01-16T06:36:52.548Z,1000.00
2024-01-16T06:37:53.236Z,1000.10
2024-01-16T06:38:54.340Z,1000.10
2024-01-16T06:39:55.282Z,1000.10
2024-01-16T06:40:57.367Z,1000.10
2024-01-16T06:41:57.472Z,1000.20
2024-01-16T06:42:58.448Z,1000.10
2024-01-16T06:43:59.498Z,1000.10
2024-01-16T06:45:00.701Z,1000.10
2024-01-16T06:46:01.404Z,1000.10
2024-01-16T06:47:01.796Z,1000.20
2024-01-16T06:48:03.086Z,1000.00
2024-01-16T06:49:04.158Z,1000.20
2024-01-16T06:50:05.127Z,1000.00
2024-01-16T06:51:05.892Z,1000.10
2024-01-16T06:52:06.944Z,1000.20
2024-01-16T06:53:08.042Z,1000.20
2024-01-16T06:54:09.054Z,1000.10
2024-01-16T06:55:10.087Z,1000.10
2024-01-16T06:56:11.022Z,1000.10
2024-01-16T06:57:12.415Z,1000.41
2024-01-16T06:58:12.886Z,1000.00
2024-01-16T06:59:13.967Z,1000.20
2024-01-16T07:00:15.344Z,1000.10
2024-01-16T07:01:16.144Z,1000.20
2024-01-16T07:02:17.207Z,1000.10
2024-01-16T07:03:18.102Z,1000.20
2024-01-16T07:04:19.136Z,1000.00
2024-01-16T07:05:20.129Z,1000.20
2024-01-16T07:06:21.138Z,1000.00
2024-01-16T07:07:22.225Z,1000.10
2024-01-16T07:08:23.121Z,1000.20
2024-01-16T07:09:24.165Z,1000.10
2024-01-16T07:10:25.091Z,1000.00
2024-01-16T07:11:26.482Z,1000.10
2024-01-16T07:12:27.444Z,1000.20
2024-01-16T07:13:28.140Z,1000.10
2024-01-16T07:14:29.334Z,1000.20
2024-01-16T07:15:30.173Z,999.80
2024-01-16T07:16:31.126Z,1000.10
2024-01-16T07:17:32.444Z,1000.20
2024-01-16T07:18:33.309Z,1000.30
2024-01-16T07:19:34.281Z,1000.30
2024-01-16T07:20:35.380Z,1000.30
2024-01-16T07:21:36.404Z,1000.30
2024-01-16T07:22:37.312Z,1000.30
2024-01-16T07:23:38.248Z,1000.20
2024-01-16T07:24:39.256Z,1000.30
2024-01-16T07:25:40.341Z,1000.30
2024-01-16T07:26:41.147Z,1000.41
2024-01-16T07:27:42.397Z,1000.41
2024-01-16T07:28:43.322Z,1000.51
2024-01-16T07:29:44.377Z,1000.41
2024-01-16T07:30:45.441Z,1000.51
2024-01-16T07:31:46.520Z,1000.41
2024-01-16T07:32:52.844Z,1000.41
2024-01-16T07:32:57.135Z,1000.41
2024-01-16T07:33:49.235Z,1000.41
2024-01-16T07:34:49.999Z,1000.51
2024-01-16T07:35:56.269Z,1000.51
2024-01-16T07:36:00.325Z,1000.30
2024-01-16T07:37:01.162Z,1000.51
2024-01-16T07:37:52.347Z,1000.41
2024-01-16T07:38:53.422Z,1000.51
2024-01-16T07:39:54.557Z,1000.41
2024-01-16T07:40:55.621Z,1000.51
2024-01-16T07:41:56.482Z,1000.41
2024-01-16T07:42:57.374Z,1000.30
2024-01-16T07:43:58.473Z,1000.51
2024-01-16T07:44:59.433Z,1000.41
2024-01-16T07:46:00.560Z,1000.61
2024-01-16T07:47:00.996Z,1000.51
2024-01-16T07:48:02.180Z,1000.61
2024-01-16T07:49:02.959Z,1000.71
2024-01-16T07:50:06.034Z,1000.51
2024-01-16T07:51:04.930Z,1000.71
2024-01-16T07:52:06.052Z,1000.51
2024-01-16T07:53:07.071Z,1000.61
2024-01-16T07:54:07.900Z,1000.61
2024-01-16T07:55:08.925Z,1000.71
2024-01-16T07:56:09.972Z,1000.61
2024-01-16T07:57:16.169Z,1000.61
2024-01-16T07:57:20.754Z,1000.61
2024-01-16T07:58:21.963Z,1000.71
2024-01-16T07:59:13.555Z,1000.61
2024-01-16T08:00:14.269Z,1000.61
2024-01-16T08:01:15.027Z,1000.81
2024-01-16T08:02:16.380Z,1000.71
2024-01-16T08:03:17.244Z,1000.71
2024-01-16T08:04:18.195Z,1000.91
2024-01-16T08:05:19.195Z,1000.81
2024-01-16T08:06:20.290Z,1000.91
2024-01-16T08:07:21.014Z,1000.81
2024-01-16T08:08:22.193Z,1000.81
2024-01-16T08:09:23.312Z,1000.71
2024-01-16T08:10:24.339Z,1000.81
2024-01-16T08:11:25.107Z,1000.81
2024-01-16T08:12:26.177Z,1000.91
2024-01-16T08:13:27.453Z,1000.91
2024-01-16T08:14:28.341Z,1001.01
2024-01-16T08:15:29.384Z,1000.91
2024-01-16T08:16:30.176Z,1000.81
2024-01-16T08:17:31.252Z,1000.91
2024-01-16T08:18:32.861Z,1000.91
2024-01-16T08:19:33.324Z,1000.81
2024-01-16T08:20:35.240Z,1001.01
2024-01-16T08:21:35.373Z,1000.91
2024-01-16T08:22:36.281Z,1000.91
2024-01-16T08:23:37.226Z,1000.81
2024-01-16T08:24:38.748Z,1001.08
2024-01-16T08:25:39.266Z,1000.91
2024-01-16T08:26:40.405Z,1000.91
2024-01-16T08:27:41.336Z,1000.81
2024-01-16T08:28:42.463Z,1000.91
2024-01-16T08:29:43.460Z,1001.01
2024-01-16T08:30:44.528Z,1000.91
2024-01-16T08:31:46.598Z,1001.01
2024-01-16T08:32:46.389Z,1000.81
2024-01-16T08:33:48.529Z,1000.91
2024-01-16T08:34:48.564Z,1000.91
2024-01-16T08:35:49.433Z,1001.01
2024-01-16T08:36:50.453Z,1001.01
2024-01-16T08:37:51.698Z,1001.01
2024-01-16T08:38:52.610Z,1000.91
2024-01-16T08:39:53.493Z,1001.01
2024-01-16T08:40:54.543Z,1001.01
2024-01-16T08:41:55.456Z,1000.91
2024-01-16T08:42:58.150Z,1001.01
2024-01-16T08:43:58.451Z,1001.08
2024-01-16T08:44:58.490Z,1001.18
2024-01-16T08:45:59.686Z,1001.08
2024-01-16T08:46:59.886Z,1001.08
2024-01-16T08:48:01.222Z,1001.18
2024-01-16T08:49:02.054Z,1000.91
2024-01-16T08:50:02.962Z,1001.01
2024-01-16T08:51:03.995Z,1000.91
2024-01-16T08:52:04.925Z,1001.01
2024-01-16T08:53:05.952Z,1001.08
2024-01-16T08:54:07.060Z,1000.91
2024-01-16T08:55:08.038Z,1001.08
2024-01-16T08:56:09.067Z,1001.18
2024-01-16T08:57:09.973Z,1000.91
2024-01-16T08:58:10.876Z,1001.01
2024-01-16T08:59:11.973Z,1000.91
2024-01-16T09:00:13.110Z,1001.08
2024-01-16T09:01:14.236Z,1001.01
2024-01-16T09:02:15.246Z,1001.01
2024-01-16T09:03:16.022Z,1001.01
2024-01-16T09:04:17.155Z,1001.01
2024-01-16T09:05:18.109Z,1000.91
2024-01-16T09:06:19.164Z,1001.01
2024-01-16T09:07:20.555Z,1001.01
2024-01-16T09:08:21.184Z,1001.08
2024-01-16T09:09:22.169Z,1001.01
2024-01-16T09:10:23.012Z,1001.08
2024-01-16T09:11:24.314Z,1000.91
2024-01-16T09:12:25.249Z,1001.08
2024-01-16T09:13:26.153Z,1000.91
2024-01-16T09:14:27.126Z,1001.01
2024-01-16T09:15:28.129Z,1000.91
2024-01-16T09:16:29.277Z,1000.91
2024-01-16T09:17:30.451Z,1000.91
2024-01-16T09:18:31.468Z,1001.18
2024-01-16T09:19:32.348Z,1000.81
2024-01-16T09:20:33.449Z,1001.01
2024-01-16T09:21:34.617Z,1000.91
2024-01-16T09:22:35.407Z,1000.91
2024-01-16T09:23:36.366Z,1001.01
2024-01-16T09:24:37.168Z,1001.01
2024-01-16T09:25:38.358Z,1001.01
2024-01-16T09:26:39.264Z,1000.91
2024-01-16T09:27:40.185Z,1001.01
2024-01-16T09:28:41.618Z,1001.18
2024-01-16T09:29:42.385Z,1001.08
2024-01-16T09:30:43.763Z,1001.01
2024-01-16T09:31:44.466Z,1001.08
2024-01-16T09:32:46.434Z,1001.08
2024-01-16T09:33:46.588Z,1001.08
2024-01-16T09:34:47.514Z,1001.01
2024-01-16T09:35:48.316Z,1001.01
2024-01-16T09:36:49.409Z,1001.08
2024-01-16T09:37:50.380Z,1001.08
2024-01-16T09:38:51.389Z,1001.18
2024-01-16T09:39:52.569Z,1001.08
2024-01-16T09:40:53.499Z,1001.18
2024-01-16T09:41:54.569Z,1001.18
2024-01-16T09:42:55.353Z,1001.08
2024-01-16T09:43:56.478Z,1001.29
2024-01-16T09:44:57.421Z,1001.18
2024-01-16T09:46:02.408Z,1001.18
2024-01-16T09:46:58.950Z,1001.18
2024-01-16T09:47:59.951Z,1001.08
2024-01-16T09:49:01.705Z,1001.18
2024-01-16T09:50:02.028Z,1001.18
2024-01-16T09:51:03.250Z,1001.08
2024-01-16T09:52:03.920Z,1001.18
2024-01-16T09:53:04.960Z,1001.08
2024-01-16T09:54:06.180Z,1001.29
2024-01-16T09:55:07.081Z,1001.18
2024-01-16T09:56:07.884Z,1001.08
2024-01-16T09:57:08.897Z,1001.08
2024-01-16T09:58:10.078Z,1001.08
2024-01-16T09:59:11.804Z,1001.18
2024-01-16T10:00:12.101Z,1001.18
2024-01-16T10:01:13.051Z,1001.08
2024-01-16T10:02:14.223Z,1001.18
2024-01-16T10:03:15.157Z,1001.01
2024-01-16T10:04:16.236Z,1001.18
2024-01-16T10:05:17.034Z,1001.08
2024-01-16T10:06:18.179Z,1001.08
2024-01-16T10:07:19.134Z,1001.08
2024-01-16T10:08:20.012Z,1001.29
2024-01-16T10:09:21.515Z,1001.01
2024-01-16T10:10:30.274Z,1001.29
2024-01-16T10:11:23.191Z,1001.01
2024-01-16T10:12:24.248Z,1001.08
2024-01-16T10:13:25.052Z,1001.01
2024-01-16T10:14:26.178Z,1001.08
2024-01-16T10:15:27.172Z,1001.08
2024-01-16T10:16:28.086Z,1001.18
2024-01-16T10:17:29.274Z,1001.08
2024-01-16T10:18:30.397Z,1001.08
2024-01-16T10:19:39.399Z,1001.29
2024-01-16T10:20:32.206Z,1001.08
2024-01-16T10:21:33.140Z,1001.01
2024-01-16T10:22:35.512Z,1001.18
2024-01-16T10:23:35.436Z,1001.08
2024-01-16T10:24:36.160Z,1001.08
2024-01-16T10:25:37.198Z,1001.18
2024-01-16T10:26:38.498Z,1001.01
2024-01-16T10:27:39.274Z,1000.91
2024-01-16T10:28:40.390Z,1001.18
2024-01-16T10:29:47.335Z,1001.01
2024-01-16T10:30:42.569Z,1001.01
2024-01-16T10:31:43.300Z,1001.18
2024-01-16T10:32:44.602Z,1001.18
2024-01-16T10:33:45.424Z,1001.01
2024-01-16T10:34:46.465Z,1001.18
2024-01-16T10:35:47.398Z,1001.01
2024-01-16T10:36:48.480Z,1001.18
2024-01-16T10:37:49.282Z,1001.01
2024-01-16T10:38:52.668Z,1001.01
2024-01-16T10:39:51.367Z,1001.08
2024-01-16T10:40:52.294Z,1000.91
2024-01-16T10:41:53.371Z,1001.08
2024-01-16T10:42:54.379Z,1001.01
2024-01-16T10:43:55.292Z,1001.18
2024-01-16T10:44:56.260Z,1001.18
2024-01-16T10:45:57.575Z,1001.01
2024-01-16T10:46:57.846Z,1001.08
2024-01-16T10:47:58.995Z,1001.01
2024-01-16T10:48:59.974Z,1001.01
2024-01-16T10:50:01.069Z,1001.18
2024-01-16T10:51:03.172Z,1001.18
2024-01-16T10:52:03.021Z,1001.01
2024-01-16T10:53:03.926Z,1000.91
2024-01-16T10:54:04.822Z,1001.08
2024-01-16T10:55:06.854Z,1001.01
2024-01-16T10:56:07.173Z,1001.01
2024-01-16T10:57:07.884Z,1001.01
2024-01-16T10:58:11.561Z,1001.01
2024-01-16T10:59:10.075Z,1001.01
2024-01-16T11:00:11.210Z,1001.08
2024-01-16T11:01:12.230Z,1001.08
2024-01-16T11:02:12.989Z,1001.01
2024-01-16T11:03:14.177Z,1001.01
2024-01-16T11:04:16.127Z,1001.08
2024-01-16T11:05:16.287Z,1001.01
2024-01-16T11:06:17.254Z,1001.18
2024-01-16T11:07:18.201Z,1001.18
2024-01-16T11:08:19.065Z,1001.18
2024-01-16T11:09:20.117Z,1001.08
2024-01-16T11:10:21.052Z,1001.01
2024-01-16T11:11:22.192Z,1001.01
2024-01-16T11:12:23.795Z,1001.01
2024-01-16T11:13:24.087Z,1001.08
2024-01-16T11:14:25.392Z,1001.08
2024-01-16T11:15:26.236Z,1001.08
2024-01-16T11:16:27.132Z,1001.08
2024-01-16T11:17:28.305Z,1001.08
2024-01-16T11:18:29.447Z,1001.08
2024-01-16T11:19:38.707Z,1001.18
2024-01-16T11:20:54.777Z,1001.08
2024-01-16T11:21:32.270Z,1001.08
2024-01-16T11:22:33.138Z,1001.08
2024-01-16T11:23:34.402Z,1001.08
2024-01-16T11:24:36.597Z,1001.29
2024-01-16T11:25:36.181Z,1001.08
2024-01-16T11:26:37.282Z,1001.01
2024-01-16T11:27:38.200Z,1001.01
2024-01-16T11:28:40.000Z,1001.08
2024-01-16T11:29:40.288Z,1001.08
2024-01-16T11:30:41.329Z,1001.18
2024-01-16T11:31:42.253Z,1001.08
2024-01-16T11:32:44.008Z,1001.08
2024-01-16T11:33:44.684Z,1001.08
2024-01-16T11:34:45.363Z,1001.01
2024-01-16T11:35:51.322Z,1001.08
2024-01-16T11:36:47.348Z,1001.18
2024-01-16T11:37:48.616Z,1001.18
2024-01-16T11:38:49.468Z,1001.18
2024-01-16T11:39:50.695Z,1001.18
2024-01-16T11:40:51.366Z,1001.08
2024-01-16T11:41:52.420Z,1001.18
2024-01-16T11:42:53.415Z,1001.08
2024-01-16T11:43:54.652Z,1001.18
2024-01-16T11:44:58.493Z,1001.01
2024-01-16T11:45:56.614Z,1001.08
2024-01-16T11:46:56.821Z,1001.01
2024-01-16T11:47:58.257Z,1001.18
2024-01-16T11:48:59.010Z,1001.08
2024-01-16T11:49:59.958Z,1000.91
2024-01-16T11:51:01.110Z,1001.08
2024-01-16T11:52:02.097Z,1001.01
2024-01-16T11:53:03.177Z,1001.01
2024-01-16T11:54:03.914Z,1001.18
2024-01-16T11:55:05.214Z,1001.18
2024-01-16T11:56:06.981Z,1001.08
2024-01-16T11:57:07.047Z,1001.08
2024-01-16T11:58:07.932Z,1001.08
2024-01-16T11:59:08.968Z,1001.08
2024-01-16T12:00:10.264Z,1001.08
2024-01-16T12:01:11.904Z,1001.18
2024-01-16T12:02:12.017Z,1001.01
2024-01-16T12:03:13.922Z,1001.01
2024-01-16T12:04:14.201Z,1001.18
2024-01-16T12:05:15.200Z,1001.01
2024-01-16T12:06:16.605Z,1001.01
2024-01-16T12:07:17.167Z,1001.08
2024-01-16T12:08:18.040Z,1001.01
2024-01-16T12:09:19.047Z,1001.18
2024-01-16T12:10:20.456Z,1001.01
2024-01-16T12:11:22.725Z,1001.01
2024-01-16T12:12:22.175Z,1001.08
2024-01-16T12:13:23.045Z,1001.01
2024-01-16T12:14:24.301Z,1000.91
2024-01-16T12:15:25.204Z,1001.01
2024-01-16T12:16:26.602Z,1001.01
2024-01-16T12:17:27.348Z,1000.81
2024-01-16T12:18:38.446Z,1001.18
2024-01-16T12:19:29.367Z,1001.08
2024-01-16T12:20:30.391Z,1000.91
2024-01-16T12:21:31.115Z,1000.91
2024-01-16T12:22:32.290Z,1000.81
2024-01-16T12:23:33.459Z,1000.71
2024-01-16T12:24:34.374Z,1000.91
2024-01-16T12:26:00.646Z,1000.91
2024-01-16T12:26:36.235Z,1000.91
2024-01-16T12:27:37.083Z,1000.81
2024-01-16T12:28:38.517Z,1000.71